createdAt,value
2019-03-29T00:02:31.221Z,26.30
2019-03-29T00:05:01.471Z,25.95
2019-03-29T00:07:39.875Z,26.12
2019-03-29T00:17:02.016Z,23.45
2019-03-29T00:19:36.971Z,25.80
2019-03-29T00:22:10.548Z,25.32
2019-03-29T00:24:43.047Z,24.80
2019-03-29T00:27:16.621Z,25.25
2019-03-29T00:29:45.619Z,23.18
2019-03-29T00:32:15.835Z,23.90
2019-03-29T00:34:49.849Z,23.87
2019-03-29T00:37:18.836Z,22.58
2019-03-29T00:39:49.401Z,22.55
2019-03-29T00:42:18.376Z,23.60
2019-03-29T00:44:47.403Z,22.98
2019-03-29T00:47:19.438Z,26.12
2019-03-29T00:49:48.431Z,26.50
2019-03-29T00:52:17.473Z,25.85
2019-03-29T00:54:46.777Z,24.95
2019-03-29T00:57:17.375Z,23.73
2019-03-29T00:59:47.428Z,25.02
2019-03-29T01:02:16.464Z,24.00
2019-03-29T01:04:45.720Z,24.12
2019-03-29T01:07:14.650Z,24.17
2019-03-29T01:09:50.164Z,26.27
2019-03-29T01:12:19.199Z,26.48
2019-03-29T01:14:49.780Z,29.23
2019-03-29T01:17:20.115Z,29.67
2019-03-29T01:19:49.302Z,28.50
2019-03-29T01:22:18.326Z,29.95
2019-03-29T01:24:49.983Z,27.87
2019-03-29T01:27:27.662Z,25.70
2019-03-29T01:29:58.761Z,27.90
2019-03-29T01:32:32.436Z,27.75
2019-03-29T01:35:04.757Z,27.40
2019-03-29T01:37:37.822Z,26.80
2019-03-29T01:40:12.612Z,27.98
2019-03-29T01:42:45.022Z,24.10
2019-03-29T01:45:16.338Z,26.57
2019-03-29T01:47:45.318Z,26.85
2019-03-29T01:50:14.300Z,25.20
2019-03-29T01:52:46.003Z,23.95
2019-03-29T01:55:15.383Z,26.25
2019-03-29T01:57:44.404Z,24.25
2019-03-29T02:00:14.943Z,28.07
2019-03-29T02:02:46.222Z,24.47
2019-03-29T02:05:16.014Z,24.27
2019-03-29T02:07:45.041Z,27.98
2019-03-29T02:10:17.583Z,26.02
2019-03-29T02:12:46.223Z,23.20
2019-03-29T02:15:15.341Z,25.40
2019-03-29T02:17:46.237Z,24.03
2019-03-29T02:20:15.255Z,24.50
2019-03-29T02:22:44.246Z,24.77
2019-03-29T02:25:16.001Z,24.20
2019-03-29T02:27:46.504Z,25.15
2019-03-29T02:30:18.667Z,27.62
2019-03-29T02:32:49.744Z,28.98
2019-03-29T02:35:18.757Z,29.10
2019-03-29T02:37:47.742Z,27.55
2019-03-29T02:40:16.770Z,28.65
2019-03-29T02:42:45.722Z,28.02
2019-03-29T02:45:16.354Z,29.77
2019-03-29T02:47:48.892Z,26.42
2019-03-29T02:50:17.195Z,25.02
2019-03-29T02:55:21.284Z,24.12
2019-03-29T03:04:33.167Z,22.42
2019-03-29T03:07:02.204Z,23.15
2019-03-29T03:09:31.223Z,23.70
2019-03-29T03:12:00.254Z,27.13
2019-03-29T03:14:29.223Z,24.25
2019-03-29T03:16:58.253Z,24.47
2019-03-29T03:19:28.054Z,25.00
2019-03-29T03:21:57.016Z,24.92
2019-03-29T03:24:26.006Z,24.63
2019-03-29T03:26:57.690Z,23.73
2019-03-29T03:29:26.673Z,24.07
2019-03-29T03:31:55.637Z,25.25
2019-03-29T03:34:25.747Z,22.90
2019-03-29T03:36:57.699Z,23.27
2019-03-29T03:39:31.848Z,23.20
2019-03-29T03:41:57.334Z,24.07
2019-03-29T03:44:38.656Z,27.85
2019-03-29T03:47:07.712Z,25.90
2019-03-29T03:49:36.693Z,25.43
2019-03-29T03:52:05.745Z,26.37
2019-03-29T03:54:37.569Z,24.20
2019-03-29T03:57:09.733Z,23.40
2019-03-29T03:59:40.705Z,25.02
2019-03-29T04:02:12.845Z,26.02
2019-03-29T04:04:41.937Z,23.85
2019-03-29T04:07:10.971Z,22.27
2019-03-29T04:09:49.604Z,23.87
2019-03-29T04:12:10.937Z,24.43
2019-03-29T04:14:39.876Z,24.30
2019-03-29T04:17:08.839Z,24.45
2019-03-29T04:19:37.822Z,22.32
2019-03-29T04:22:06.851Z,24.92
2019-03-29T04:24:35.857Z,24.00
2019-03-29T04:27:06.117Z,26.15
2019-03-29T04:29:38.837Z,23.47
2019-03-29T04:32:07.542Z,25.80
2019-03-29T04:34:36.567Z,24.65
2019-03-29T04:37:05.538Z,24.87
2019-03-29T04:39:36.133Z,25.35
2019-03-29T04:42:05.101Z,24.25
2019-03-29T04:44:35.580Z,23.70
2019-03-29T04:47:05.617Z,22.85
2019-03-29T04:49:34.925Z,23.20
2019-03-29T04:52:04.193Z,24.98
2019-03-29T04:54:33.313Z,25.10
2019-03-29T04:57:02.361Z,25.52
2019-03-29T04:59:35.718Z,25.72
2019-03-29T05:02:04.933Z,24.95
2019-03-29T05:04:34.245Z,25.00
2019-03-29T05:07:05.708Z,24.35
2019-03-29T05:09:34.671Z,23.32
2019-03-29T05:12:03.643Z,24.35
2019-03-29T05:14:32.635Z,25.35
2019-03-29T05:17:03.299Z,24.55
2019-03-29T05:22:03.711Z,25.00
2019-03-29T05:24:34.801Z,26.25
2019-03-29T05:27:05.360Z,25.03
2019-03-29T05:29:34.383Z,27.05
2019-03-29T05:32:06.401Z,25.75
2019-03-29T05:34:35.459Z,24.47
2019-03-29T05:37:04.471Z,27.00
2019-03-29T05:39:37.108Z,25.30
2019-03-29T05:42:08.983Z,25.37
2019-03-29T05:44:40.715Z,26.65
2019-03-29T05:47:08.659Z,26.35
2019-03-29T05:49:37.702Z,27.30
2019-03-29T05:52:06.728Z,27.22
2019-03-29T05:54:39.718Z,26.60
2019-03-29T05:57:08.682Z,25.80
2019-03-29T05:59:37.672Z,26.95
2019-03-29T06:02:06.692Z,26.37
2019-03-29T06:04:38.012Z,26.82
2019-03-29T06:07:07.026Z,26.52
2019-03-29T06:09:36.036Z,27.95
2019-03-29T06:12:05.064Z,26.87
2019-03-29T06:14:36.505Z,28.10
2019-03-29T06:17:09.122Z,26.05
2019-03-29T06:19:38.187Z,27.77
2019-03-29T06:22:07.271Z,30.20
2019-03-29T06:24:37.125Z,25.65
2019-03-29T06:29:35.513Z,28.20
2019-03-29T06:32:04.434Z,28.67
2019-03-29T06:34:33.408Z,26.25
2019-03-29T06:37:10.348Z,30.05
2019-03-29T06:39:39.896Z,29.20
2019-03-29T06:42:11.956Z,29.92
2019-03-29T06:44:44.107Z,31.00
2019-03-29T06:47:14.214Z,28.75
2019-03-29T06:49:46.399Z,32.05
2019-03-29T06:52:15.443Z,28.62
2019-03-29T06:54:44.475Z,29.07
2019-03-29T06:57:13.497Z,32.55
2019-03-29T06:59:45.362Z,35.38
2019-03-29T07:02:14.320Z,34.05
2019-03-29T07:04:44.658Z,36.08
2019-03-29T07:07:13.737Z,36.08
2019-03-29T07:09:42.707Z,38.40
2019-03-29T07:12:11.746Z,38.45
2019-03-29T07:14:40.785Z,36.10
2019-03-29T07:17:10.372Z,33.53
2019-03-29T07:19:43.647Z,37.20
2019-03-29T07:22:12.604Z,33.02
2019-03-29T07:24:41.684Z,36.88
2019-03-29T07:33:38.173Z,38.75
2019-03-29T07:36:09.931Z,37.10
2019-03-29T07:38:38.891Z,39.23
2019-03-29T07:41:08.897Z,39.15
2019-03-29T07:46:07.945Z,37.63
2019-03-29T07:48:40.225Z,41.40
2019-03-29T07:51:08.745Z,42.50
2019-03-29T07:56:09.779Z,41.30
2019-03-29T07:58:39.185Z,42.15
2019-03-29T08:01:08.493Z,44.25
2019-03-29T08:03:38.016Z,43.95
2019-03-29T08:06:08.603Z,43.87
2019-03-29T08:08:37.628Z,42.50
2019-03-29T08:13:35.907Z,43.17
2019-03-29T08:16:07.804Z,45.33
2019-03-29T08:18:40.656Z,46.73
2019-03-29T08:21:11.292Z,47.17
2019-03-29T08:23:44.423Z,47.25
2019-03-29T08:26:13.449Z,47.48
2019-03-29T08:28:42.679Z,49.35
2019-03-29T08:31:11.781Z,48.90
2019-03-29T08:33:40.986Z,51.37
2019-03-29T08:36:09.995Z,50.90
2019-03-29T08:38:38.994Z,51.58
2019-03-29T08:41:10.408Z,50.00
2019-03-29T08:43:39.387Z,52.15
2019-03-29T08:46:08.445Z,54.70
2019-03-29T08:48:37.428Z,55.48
2019-03-29T08:51:07.994Z,54.73
2019-03-29T08:53:36.997Z,55.95
2019-03-29T08:56:05.970Z,55.00
2019-03-29T08:58:34.939Z,54.35
2019-03-29T09:01:04.284Z,54.58
2019-03-29T09:03:35.326Z,55.73
2019-03-29T09:06:06.495Z,55.78
2019-03-29T09:08:35.534Z,57.53
2019-03-29T09:11:07.493Z,55.25
2019-03-29T09:13:36.462Z,53.92
2019-03-29T09:16:12.438Z,50.48
2019-03-29T09:18:41.657Z,50.25
2019-03-29T09:21:10.598Z,49.30
2019-03-29T09:23:42.747Z,49.18
2019-03-29T09:26:12.911Z,50.58
2019-03-29T09:28:41.974Z,48.13
2019-03-29T09:31:10.953Z,48.65
2019-03-29T09:33:40.145Z,47.35
2019-03-29T09:36:09.138Z,48.40
2019-03-29T09:38:38.169Z,48.50
2019-03-29T09:41:07.177Z,47.83
2019-03-29T09:43:36.145Z,48.73
2019-03-29T09:46:05.141Z,48.87
2019-03-29T09:48:37.238Z,50.65
2019-03-29T09:51:06.323Z,46.85
2019-03-29T09:53:35.363Z,45.73
2019-03-29T09:56:04.311Z,43.43
2019-03-29T09:58:44.913Z,46.50
2019-03-29T10:01:16.329Z,44.85
2019-03-29T10:03:45.591Z,42.38
2019-03-29T10:06:15.478Z,42.95
2019-03-29T10:08:49.157Z,45.98
2019-03-29T10:11:21.633Z,45.20
2019-03-29T10:13:54.449Z,45.80
2019-03-29T10:16:25.890Z,45.75
2019-03-29T10:18:54.314Z,45.70
2019-03-29T10:21:23.264Z,47.80
2019-03-29T10:23:52.373Z,46.63
2019-03-29T10:26:21.325Z,44.07
2019-03-29T10:28:50.309Z,47.93
2019-03-29T10:31:31.538Z,46.18
2019-03-29T10:33:49.952Z,42.95
2019-03-29T10:36:18.930Z,43.60
2019-03-29T10:38:52.355Z,43.40
2019-03-29T10:41:22.696Z,44.03
2019-03-29T10:43:52.219Z,43.52
2019-03-29T10:46:22.817Z,43.23
2019-03-29T10:48:51.834Z,43.45
2019-03-29T10:51:20.870Z,47.00
2019-03-29T10:53:49.893Z,44.30
2019-03-29T10:56:33.300Z,43.43
2019-03-29T10:58:56.132Z,44.75
2019-03-29T11:01:29.699Z,43.65
2019-03-29T11:03:58.712Z,46.25
2019-03-29T11:06:27.739Z,44.07
2019-03-29T11:08:56.710Z,45.03
2019-03-29T11:11:25.928Z,45.30
2019-03-29T11:13:56.685Z,43.90
2019-03-29T11:16:27.372Z,43.92
2019-03-29T11:18:57.567Z,46.33
2019-03-29T11:21:28.239Z,44.38
2019-03-29T11:23:58.269Z,43.58
2019-03-29T11:26:27.224Z,42.77
2019-03-29T11:28:57.466Z,43.02
2019-03-29T11:31:32.371Z,43.35
2019-03-29T11:34:01.387Z,41.83
2019-03-29T11:36:30.406Z,43.13
2019-03-29T11:39:01.823Z,43.93
2019-03-29T11:41:32.466Z,43.40
2019-03-29T11:44:01.512Z,45.03
2019-03-29T11:46:30.439Z,46.47
2019-03-29T11:48:59.424Z,46.30
2019-03-29T11:51:30.019Z,45.67
2019-03-29T11:54:01.300Z,47.27
2019-03-29T11:56:30.282Z,46.77
2019-03-29T11:59:05.828Z,47.77
2019-03-29T12:01:29.955Z,47.67
2019-03-29T12:03:58.935Z,50.23
2019-03-29T12:06:29.597Z,48.10
2019-03-29T12:08:58.531Z,47.97
2019-03-29T12:11:29.133Z,46.60
2019-03-29T12:13:58.057Z,49.77
2019-03-29T12:16:27.007Z,47.27
2019-03-29T12:18:56.159Z,47.83
2019-03-29T12:21:25.200Z,47.25
2019-03-29T12:23:57.113Z,45.73
2019-03-29T12:26:26.118Z,46.93
2019-03-29T12:28:55.135Z,47.77
2019-03-29T12:31:24.215Z,45.43
2019-03-29T12:33:53.183Z,47.48
2019-03-29T12:36:22.161Z,47.67
2019-03-29T12:38:51.293Z,45.75
2019-03-29T12:41:20.377Z,45.87
2019-03-29T12:43:55.859Z,44.33
2019-03-29T12:46:22.981Z,46.35
2019-03-29T12:48:56.407Z,44.77
2019-03-29T12:51:23.725Z,44.15
2019-03-29T12:53:52.787Z,44.67
2019-03-29T12:56:24.547Z,47.00
2019-03-29T12:58:53.757Z,47.27
2019-03-29T13:01:22.781Z,47.15
2019-03-29T13:03:51.770Z,46.88
2019-03-29T13:06:23.484Z,47.07
2019-03-29T13:08:52.437Z,45.90
2019-03-29T13:11:21.392Z,47.03
2019-03-29T13:14:09.626Z,47.60
2019-03-29T13:16:30.781Z,45.35
2019-03-29T13:18:59.764Z,45.83
2019-03-29T13:21:28.870Z,47.03
2019-03-29T13:23:59.582Z,45.65
2019-03-29T13:26:28.699Z,45.35
2019-03-29T13:28:57.655Z,45.25
2019-03-29T13:31:29.530Z,46.90
2019-03-29T13:33:58.737Z,45.67
2019-03-29T13:36:27.772Z,45.23
2019-03-29T13:38:59.032Z,46.30
2019-03-29T13:41:27.377Z,45.00
2019-03-29T13:43:58.830Z,45.63
2019-03-29T13:46:28.025Z,44.77
2019-03-29T13:48:59.388Z,45.78
2019-03-29T13:51:28.502Z,44.53
2019-03-29T13:53:57.519Z,44.80
2019-03-29T13:56:29.274Z,45.00
2019-03-29T13:59:01.828Z,42.80
2019-03-29T14:01:30.862Z,42.85
2019-03-29T14:03:59.839Z,43.52
2019-03-29T14:06:30.552Z,44.85
2019-03-29T14:08:59.522Z,42.90
2019-03-29T14:11:30.340Z,42.13
2019-03-29T14:14:02.295Z,42.95
2019-03-29T14:16:33.277Z,42.10
2019-03-29T14:19:01.979Z,43.25
2019-03-29T14:21:31.756Z,41.30
2019-03-29T14:24:00.741Z,43.92
2019-03-29T14:26:29.802Z,42.90
2019-03-29T14:29:01.271Z,44.45
2019-03-29T14:31:31.780Z,41.02
2019-03-29T14:34:03.906Z,41.77
2019-03-29T14:36:34.696Z,39.40
2019-03-29T14:39:06.913Z,40.70
2019-03-29T14:41:37.502Z,42.38
2019-03-29T14:44:09.320Z,39.50
2019-03-29T14:46:40.120Z,40.98
2019-03-29T14:49:11.253Z,38.80
2019-03-29T14:51:41.425Z,38.02
2019-03-29T14:54:10.435Z,41.42
2019-03-29T14:56:42.009Z,39.23
2019-03-29T14:59:12.713Z,39.25
2019-03-29T15:01:42.016Z,38.80
2019-03-29T15:04:11.009Z,38.98
2019-03-29T15:06:40.032Z,38.10
2019-03-29T15:09:10.639Z,38.45
2019-03-29T15:11:39.674Z,37.70
2019-03-29T15:14:08.715Z,37.70
2019-03-29T15:16:37.717Z,37.05
2019-03-29T15:19:06.789Z,36.58
2019-03-29T15:21:37.994Z,36.60
2019-03-29T15:24:16.971Z,35.30
2019-03-29T15:26:50.459Z,36.15
2019-03-29T15:29:19.437Z,35.30
2019-03-29T15:31:50.726Z,35.88
2019-03-29T15:34:19.065Z,35.30
2019-03-29T15:36:48.057Z,37.50
2019-03-29T15:39:20.097Z,35.28
2019-03-29T15:41:49.065Z,34.18
2019-03-29T15:44:18.040Z,36.53
2019-03-29T15:46:48.927Z,36.50
2019-03-29T15:49:17.661Z,35.65
2019-03-29T15:51:46.784Z,34.03
2019-03-29T15:59:18.559Z,33.42
2019-03-29T16:02:06.976Z,34.43
2019-03-29T16:04:35.958Z,34.05
2019-03-29T16:07:11.398Z,32.35
2019-03-29T16:09:40.447Z,32.88
2019-03-29T16:12:09.454Z,34.08
2019-03-29T16:14:40.122Z,34.05
2019-03-29T16:17:12.810Z,34.05
2019-03-29T16:19:41.526Z,34.00
2019-03-29T16:22:10.486Z,35.33
2019-03-29T16:24:39.490Z,36.37
2019-03-29T16:27:10.330Z,36.83
2019-03-29T16:29:44.622Z,36.28
2019-03-29T16:32:13.579Z,35.03
2019-03-29T16:34:44.647Z,35.83
2019-03-29T16:37:16.007Z,33.90
2019-03-29T16:39:45.000Z,38.05
2019-03-29T16:42:13.971Z,38.63
2019-03-29T16:44:42.950Z,38.15
2019-03-29T16:47:14.686Z,37.75
2019-03-29T16:49:47.082Z,38.33
2019-03-29T16:52:16.173Z,37.17
2019-03-29T16:54:45.105Z,37.80
2019-03-29T16:57:14.606Z,37.35
2019-03-29T16:59:43.677Z,38.60
2019-03-29T17:02:12.705Z,37.28
2019-03-29T17:04:45.245Z,39.20
2019-03-29T17:07:15.286Z,39.10
2019-03-29T17:09:47.158Z,37.98
2019-03-29T17:12:16.317Z,37.73
2019-03-29T17:14:45.367Z,39.55
2019-03-29T17:17:14.410Z,40.17
2019-03-29T17:19:45.880Z,39.53
2019-03-29T17:22:21.981Z,37.28
2019-03-29T17:24:56.873Z,37.40
2019-03-29T17:27:22.799Z,37.85
2019-03-29T17:29:55.737Z,38.17
2019-03-29T17:32:24.784Z,38.08
2019-03-29T17:34:53.891Z,37.75
2019-03-29T17:37:22.815Z,36.87
2019-03-29T17:39:51.853Z,37.13
2019-03-29T17:42:21.267Z,35.80
2019-03-29T17:44:50.295Z,36.80
2019-03-29T17:47:19.287Z,35.67
2019-03-29T17:49:49.961Z,35.73
2019-03-29T17:52:23.538Z,36.40
2019-03-29T17:54:54.117Z,34.40
2019-03-29T17:57:23.170Z,34.95
2019-03-29T17:59:52.113Z,35.43
2019-03-29T18:04:50.259Z,34.03
2019-03-29T18:07:19.241Z,36.05
2019-03-29T18:09:48.236Z,34.70
2019-03-29T18:12:20.208Z,33.73
2019-03-29T18:14:49.221Z,34.23
2019-03-29T18:17:24.275Z,35.50
2019-03-29T18:19:56.280Z,34.92
2019-03-29T18:22:25.256Z,34.50
2019-03-29T18:24:54.294Z,35.98
2019-03-29T18:27:24.994Z,34.50
2019-03-29T18:29:56.279Z,34.75
2019-03-29T18:32:25.642Z,35.40
2019-03-29T18:37:29.157Z,33.30
2019-03-29T18:39:59.776Z,34.60
2019-03-29T18:42:28.914Z,34.03
2019-03-29T18:49:00.798Z,33.48
2019-03-29T18:51:35.178Z,32.95
2019-03-29T18:54:04.216Z,35.20
2019-03-29T18:56:36.801Z,36.43
2019-03-29T18:59:05.888Z,34.48
2019-03-29T19:01:34.903Z,35.88
2019-03-29T19:04:06.955Z,37.40
2019-03-29T19:06:37.056Z,35.78
2019-03-29T19:09:06.026Z,35.23
2019-03-29T19:11:37.785Z,32.95
2019-03-29T19:14:12.920Z,34.90
2019-03-29T19:16:57.931Z,33.83
2019-03-29T19:19:14.170Z,35.15
2019-03-29T19:21:45.243Z,34.50
2019-03-29T19:24:14.229Z,34.33
2019-03-29T19:29:12.397Z,34.30
2019-03-29T19:31:44.958Z,34.58
2019-03-29T19:34:19.943Z,33.92
2019-03-29T19:36:50.511Z,34.53
2019-03-29T19:39:19.526Z,35.33
2019-03-29T19:41:54.268Z,34.35
2019-03-29T19:44:29.519Z,33.88
2019-03-29T19:47:12.539Z,33.83
2019-03-29T19:49:30.669Z,34.40
2019-03-29T19:51:59.673Z,34.78
2019-03-29T19:54:28.745Z,35.20
2019-03-29T19:56:57.883Z,34.80
2019-03-29T19:59:26.865Z,35.73
2019-03-29T20:01:55.935Z,34.43
2019-03-29T20:04:29.407Z,35.08
2019-03-29T20:06:58.394Z,34.95
2019-03-29T20:09:33.543Z,35.90
2019-03-29T20:12:02.517Z,35.23
2019-03-29T20:14:32.287Z,35.75
2019-03-29T20:17:02.961Z,38.55
2019-03-29T20:19:34.900Z,35.65
2019-03-29T20:22:06.251Z,36.50
2019-03-29T20:24:35.237Z,35.20
2019-03-29T20:27:04.207Z,38.90
2019-03-29T20:29:34.050Z,36.20
2019-03-29T20:32:03.095Z,38.35
2019-03-29T20:34:32.436Z,38.47
2019-03-29T20:37:04.279Z,38.38
2019-03-29T20:39:32.349Z,37.75
2019-03-29T20:42:03.591Z,38.05
2019-03-29T20:44:32.614Z,38.83
2019-03-29T20:47:01.695Z,41.40
2019-03-29T20:49:34.788Z,40.00
2019-03-29T20:52:05.578Z,41.23
2019-03-29T20:54:44.527Z,41.15
2019-03-29T20:57:10.567Z,41.98
2019-03-29T20:59:39.579Z,43.20
2019-03-29T21:02:08.602Z,44.05
2019-03-29T21:04:40.414Z,42.67
2019-03-29T21:07:10.913Z,43.40
2019-03-29T21:09:44.148Z,43.25
2019-03-29T21:12:14.776Z,43.33
2019-03-29T21:14:49.327Z,42.75
2019-03-29T21:17:18.395Z,43.33
2019-03-29T21:19:50.938Z,43.15
2019-03-29T21:22:19.907Z,43.55
2019-03-29T21:24:51.636Z,44.42
2019-03-29T21:27:23.896Z,44.15
2019-03-29T21:29:59.237Z,45.00
2019-03-29T21:32:29.842Z,44.63
2019-03-29T21:34:58.940Z,45.92
2019-03-29T21:37:27.950Z,45.57
2019-03-29T21:39:56.990Z,46.45
2019-03-29T21:42:31.298Z,44.57
2019-03-29T21:45:00.395Z,44.77
2019-03-29T21:47:35.206Z,44.40
2019-03-29T21:50:14.762Z,45.05
2019-03-29T21:52:43.752Z,46.65
2019-03-29T21:55:12.779Z,45.92
2019-03-29T21:57:41.906Z,45.92
2019-03-29T22:00:11.544Z,46.53
2019-03-29T22:02:42.707Z,47.78
2019-03-29T22:05:11.741Z,45.95
2019-03-29T22:07:43.274Z,45.80
2019-03-29T22:10:12.420Z,47.83
2019-03-29T22:12:43.082Z,47.30
2019-03-29T22:15:14.061Z,45.98
2019-03-29T22:17:43.086Z,46.35
2019-03-29T22:20:12.684Z,47.20
2019-03-29T22:22:41.696Z,46.88
2019-03-29T22:25:10.718Z,47.93
2019-03-29T22:27:39.834Z,48.13
2019-03-29T22:30:09.839Z,47.80
2019-03-29T22:32:39.883Z,46.88
2019-03-29T22:35:09.419Z,47.90
2019-03-29T22:37:40.763Z,46.85
2019-03-29T22:40:09.826Z,47.53
2019-03-29T22:42:38.796Z,47.90
2019-03-29T22:45:08.142Z,47.08
2019-03-29T22:47:39.861Z,48.17
2019-03-29T22:50:08.245Z,49.10
2019-03-29T22:52:40.135Z,48.68
2019-03-29T22:55:10.589Z,50.08
2019-03-29T22:57:41.224Z,48.25
2019-03-29T23:00:17.507Z,47.65
2019-03-29T23:02:48.215Z,49.65
2019-03-29T23:05:22.871Z,48.58
2019-03-29T23:07:51.870Z,47.13
2019-03-29T23:10:20.886Z,48.75
2019-03-29T23:12:52.534Z,47.25
2019-03-29T23:15:28.930Z,47.60
2019-03-29T23:17:57.980Z,46.90
2019-03-29T23:20:27.082Z,49.80
2019-03-29T23:22:56.573Z,49.83
2019-03-29T23:25:28.063Z,49.98
2019-03-29T23:27:58.719Z,49.63
2019-03-29T23:30:49.875Z,47.70
2019-03-29T23:33:23.646Z,47.43
2019-03-29T23:35:52.715Z,47.30
2019-03-29T23:38:21.746Z,47.87
2019-03-29T23:40:53.530Z,46.55
2019-03-29T23:43:22.574Z,48.75
2019-03-29T23:45:53.942Z,46.23
2019-03-29T23:48:22.928Z,49.60
2019-03-29T23:50:51.899Z,46.68
2019-03-29T23:53:23.486Z,46.68
2019-03-29T23:55:52.526Z,47.83
2019-03-29T23:58:21.519Z,47.58
